Impacts METAR Board
IDs:

KBHM - Birmingham Intl, AL, US

Updated at: 0900 UTC 17 Aug 2018
Potential Impact None Slight Moderate High
Time 16/21Z 16/22Z 16/23Z 17/00Z 17/01Z 17/02Z 17/03Z 17/04Z 17/05Z 17/06Z 17/07Z 17/08Z 17/09Z
Temp92 93 90 88 84 83 81 80 78 77 76 77 77
Dewpt70 70 70 70 70 73 72 72 72 71 72 73 73
Altim30.10 30.10 30.10 30.11 30.13 30.14 30.17 30.17 30.16 30.15 30.15 30.14 30.16
VIS10 10 10 10 10 10 10 10 10 10 10 10 10
CIG250 250 250 250 250 250 250 -- -- -- 13 11 9
CoverBKNBKNBKNOVCBKNBKNBKNSCTSCTCLRBKNOVCOVC
FltCatVFRVFRVFRVFRVFRVFRVFRVFRVFRVFRMVFRMVFRIFR
WX--------------------------
WDir200170180150160180180190160170170170200
WSpd10 11 12 6 9 8 9 9 7 4 5 5 11
WGst-- -- -- -- -- -- -- -- -- -- -- -- --
Raw hourly METARs
KBHM 162053Z 20010KT 10SM SCT050 BKN250 33/21 A3010 RMK AO2 SLP183 T03330211 56018
KBHM 162153Z 17011KT 10SM SCT050 BKN250 34/21 A3010 RMK AO2 SLP183 T03390211
KBHM 162253Z 18012KT 10SM SCT050 BKN250 32/21 A3010 RMK AO2 SLP182 T03220211
KBHM 162353Z 15006KT 10SM SCT055 OVC250 31/21 A3011 RMK AO2 LTG DSNT N SLP188 T03110211 10344 20311 53003
KBHM 170053Z 16009KT 10SM SCT055 BKN250 29/21 A3013 RMK AO2 LTG DSNT N SLP194 T02890211
KBHM 170153Z 18008KT 10SM SCT050 BKN250 28/23 A3014 RMK AO2 LTG DSNT N SLP198 T02830228
KBHM 170253Z 18009KT 10SM SCT050 BKN250 27/22 A3017 RMK AO2 SLP208 T02720222 53019
KBHM 170353Z 19009KT 10SM SCT250 27/22 A3017 RMK AO2 SLP208 T02670222
KBHM 170453Z 16007KT 10SM SCT250 26/22 A3016 RMK AO2 SLP204 T02560222
KBHM 170553Z 17004KT 10SM CLR 25/22 A3015 RMK AO2 SLP200 T02500217 10311 20250 403440239 58007
KBHM 170700Z 17005KT 10SM BKN013 24/22 A3015 RMK AO2 T02440222
KBHM 170753Z 17005KT 10SM OVC011 25/23 A3014 RMK AO2 SLP197 T02500228
KBHM 170853Z 20011KT 10SM OVC009 25/23 A3016 RMK AO2 SLP202 T02500228 53002



Page loaded:  09:31 UTC  |   02:31 AM Pacific  |   03:31 AM Mountain  |   04:31 AM Central  |   05:31 AM Eastern

 

ADVISORIES

FORECASTS

FORECASTS

OBSERVATIONS

USER TOOLS

ABOUT US